createdAt,value
2016-09-27T00:00:22.299Z,0
2016-09-27T00:01:21.982Z,0
2016-09-27T00:02:22.235Z,0
2016-09-27T00:03:22.195Z,0
2016-09-27T00:04:22.185Z,0
2016-09-27T00:05:21.831Z,0
2016-09-27T00:06:22.402Z,0
2016-09-27T00:07:22.362Z,0
2016-09-27T00:08:22.030Z,0
2016-09-27T00:09:22.298Z,0
2016-09-27T00:10:21.963Z,0
2016-09-27T00:11:21.638Z,0
2016-09-27T00:12:22.201Z,0
2016-09-27T00:13:21.866Z,0
2016-09-27T00:14:22.129Z,0
2016-09-27T00:15:21.823Z,0
2016-09-27T00:16:22.060Z,0
2016-09-27T00:17:21.736Z,0
2016-09-27T00:18:22.003Z,0
2016-09-27T00:19:21.661Z,0
2016-09-27T00:20:21.625Z,0
2016-09-27T00:21:21.897Z,0
2016-09-27T00:22:21.561Z,0
2016-09-27T00:23:21.533Z,0
2016-09-27T00:24:21.800Z,0
2016-09-27T00:25:21.773Z,0
2016-09-27T00:26:20.827Z,0
2016-09-27T00:27:21.713Z,0
2016-09-27T00:28:21.667Z,0
2016-09-27T00:29:21.632Z,0
2016-09-27T00:30:21.295Z,0
2016-09-27T00:31:20.956Z,0
2016-09-27T00:32:21.535Z,0
2016-09-27T00:33:21.497Z,0
2016-09-27T00:34:21.162Z,0
2016-09-27T00:35:21.134Z,0
2016-09-27T00:36:21.398Z,0
2016-09-27T00:37:21.070Z,0
2016-09-27T00:38:21.035Z,0
2016-09-27T00:39:21.296Z,0
2016-09-27T00:40:21.264Z,0
2016-09-27T00:41:20.933Z,0
2016-09-27T00:42:20.896Z,0
2016-09-27T00:43:21.163Z,0
2016-09-27T00:44:21.127Z,0
2016-09-27T00:45:21.104Z,0
2016-09-27T00:46:21.066Z,0
2016-09-27T00:47:20.426Z,0
2016-09-27T00:48:20.699Z,0
2016-09-27T00:49:20.964Z,0
2016-09-27T00:50:20.933Z,0
2016-09-27T00:51:20.902Z,0
2016-09-27T00:52:20.861Z,0
2016-09-27T00:53:20.233Z,0
2016-09-27T00:54:20.797Z,0
2016-09-27T00:55:20.464Z,0
2016-09-27T00:56:20.733Z,0
2016-09-27T00:57:20.697Z,0
2016-09-27T00:58:20.403Z,0
2016-09-27T00:59:20.332Z,0
2016-09-27T01:00:20.600Z,0
2016-09-27T01:01:20.570Z,0
2016-09-27T01:02:20.234Z,0
2016-09-27T01:03:19.899Z,0
2016-09-27T01:04:19.866Z,0
2016-09-27T01:05:20.437Z,0
2016-09-27T01:06:20.103Z,0
2016-09-27T01:07:20.368Z,0
2016-09-27T01:08:20.334Z,0
2016-09-27T01:09:19.705Z,0
2016-09-27T01:10:20.279Z,0
2016-09-27T01:11:19.941Z,0
2016-09-27T01:12:19.906Z,0
2016-09-27T01:13:19.872Z,0
2016-09-27T01:14:19.837Z,0
2016-09-27T01:15:19.804Z,0
2016-09-27T01:16:20.075Z,0
2016-09-27T01:17:20.041Z,0
2016-09-27T01:18:19.706Z,0
2016-09-27T01:19:19.981Z,0
2016-09-27T01:20:19.941Z,0
2016-09-27T01:21:19.925Z,0
2016-09-27T01:22:19.877Z,0
2016-09-27T01:23:19.844Z,0
2016-09-27T01:24:19.215Z,0
2016-09-27T01:25:19.476Z,0
2016-09-27T01:26:19.743Z,0
2016-09-27T01:27:19.417Z,0
2016-09-27T01:28:19.376Z,0
2016-09-27T01:29:19.641Z,0
2016-09-27T01:30:19.624Z,0
2016-09-27T01:31:19.279Z,0
2016-09-27T01:32:19.549Z,0
2016-09-27T01:33:19.212Z,0
2016-09-27T01:34:19.173Z,0
2016-09-27T01:35:19.451Z,0
2016-09-27T01:36:18.813Z,0
2016-09-27T01:37:19.383Z,0
2016-09-27T01:38:19.371Z,0
2016-09-27T01:39:19.315Z,0
2016-09-27T01:40:19.284Z,0
2016-09-27T01:41:18.949Z,0
2016-09-27T01:42:18.913Z,0
2016-09-27T01:43:18.887Z,0
2016-09-27T01:44:19.150Z,0
2016-09-27T01:45:19.116Z,0
2016-09-27T01:46:18.783Z,0
2016-09-27T01:47:19.058Z,0
2016-09-27T01:48:19.024Z,0
2016-09-27T01:49:18.389Z,0
2016-09-27T01:50:18.950Z,0
2016-09-27T01:51:18.322Z,0
2016-09-27T01:52:18.898Z,0
2016-09-27T01:53:18.856Z,0
2016-09-27T01:54:18.525Z,0
2016-09-27T01:55:18.788Z,0
2016-09-27T01:56:18.471Z,0
2016-09-27T01:57:18.722Z,0
2016-09-27T01:58:18.393Z,0
2016-09-27T01:59:18.370Z,0
2016-09-27T02:00:18.626Z,0
2016-09-27T02:01:18.591Z,0
2016-09-27T02:02:18.561Z,0
2016-09-27T02:03:18.521Z,0
2016-09-27T02:04:18.195Z,0
2016-09-27T02:05:18.465Z,0
2016-09-27T02:06:18.425Z,0
2016-09-27T02:07:18.095Z,0
2016-09-27T02:08:18.061Z,0
2016-09-27T02:09:18.327Z,0
2016-09-27T02:10:18.298Z,0
2016-09-27T02:11:18.261Z,0
2016-09-27T02:12:17.928Z,0
2016-09-27T02:13:17.898Z,0
2016-09-27T02:14:18.171Z,0
2016-09-27T02:15:17.831Z,0
2016-09-27T02:16:17.791Z,0
2016-09-27T02:17:18.064Z,0
2016-09-27T02:18:18.028Z,0
2016-09-27T02:19:17.696Z,0
2016-09-27T02:20:17.968Z,0
2016-09-27T02:21:17.936Z,0
2016-09-27T02:22:17.898Z,0
2016-09-27T02:23:17.866Z,0
2016-09-27T02:24:17.834Z,0
2016-09-27T02:25:17.796Z,0
2016-09-27T02:26:17.466Z,0
2016-09-27T02:27:17.738Z,0
2016-09-27T02:28:17.696Z,0
2016-09-27T02:29:17.662Z,0
2016-09-27T02:30:17.638Z,0
2016-09-27T02:31:17.299Z,0
2016-09-27T02:32:17.567Z,0
2016-09-27T02:33:17.536Z,0
2016-09-27T02:34:16.892Z,0
2016-09-27T02:35:17.465Z,0
2016-09-27T02:36:17.435Z,0
2016-09-27T02:37:17.096Z,0
2016-09-27T02:38:17.367Z,0
2016-09-27T02:39:17.035Z,0
2016-09-27T02:40:17.300Z,0
2016-09-27T02:41:17.288Z,0
2016-09-27T02:42:17.235Z,0
2016-09-27T02:43:17.215Z,0
2016-09-27T02:44:16.866Z,0
2016-09-27T02:45:17.158Z,0
2016-09-27T02:46:17.103Z,0
2016-09-27T02:47:16.767Z,0
2016-09-27T02:48:17.054Z,0
2016-09-27T02:49:16.707Z,0
2016-09-27T02:50:16.669Z,0
2016-09-27T02:51:16.939Z,0
2016-09-27T02:52:16.910Z,0
2016-09-27T02:53:16.876Z,0
2016-09-27T02:54:16.244Z,0
2016-09-27T02:55:16.516Z,0
2016-09-27T02:56:16.170Z,0
2016-09-27T02:57:16.737Z,0
2016-09-27T02:58:16.706Z,0
2016-09-27T02:59:16.674Z,0
2016-09-27T03:00:16.649Z,0
2016-09-27T03:01:16.308Z,0
2016-09-27T03:02:16.579Z,0
2016-09-27T03:03:16.540Z,0
2016-09-27T03:04:16.516Z,0
2016-09-27T03:05:16.174Z,0
2016-09-27T03:06:16.154Z,0
2016-09-27T03:07:16.411Z,0
2016-09-27T03:08:16.069Z,0
2016-09-27T03:09:16.045Z,0
2016-09-27T03:10:16.313Z,0
2016-09-27T03:11:16.276Z,0
2016-09-27T03:12:16.242Z,0
2016-09-27T03:13:15.901Z,0
2016-09-27T03:14:16.177Z,0
2016-09-27T03:15:15.543Z,0
2016-09-27T03:16:16.133Z,0
2016-09-27T03:17:15.791Z,0
2016-09-27T03:18:16.047Z,0
2016-09-27T03:19:16.011Z,0
2016-09-27T03:20:15.978Z,0
2016-09-27T03:21:15.637Z,0
2016-09-27T03:22:15.914Z,0
2016-09-27T03:23:15.881Z,0
2016-09-27T03:24:15.843Z,0
2016-09-27T03:25:15.205Z,0
2016-09-27T03:26:15.781Z,0
2016-09-27T03:27:15.744Z,0
2016-09-27T03:28:15.414Z,0
2016-09-27T03:29:15.677Z,0
2016-09-27T03:30:15.642Z,0
2016-09-27T03:31:15.614Z,0
2016-09-27T03:32:15.580Z,0
2016-09-27T03:33:15.248Z,0
2016-09-27T03:34:15.514Z,0
2016-09-27T03:35:15.472Z,0
2016-09-27T03:36:15.448Z,0
2016-09-27T03:37:15.413Z,0
2016-09-27T03:38:15.375Z,0
2016-09-27T03:39:15.367Z,0
2016-09-27T03:40:15.309Z,0
2016-09-27T03:41:15.275Z,0
2016-09-27T03:42:15.246Z,0
2016-09-27T03:43:15.211Z,0
2016-09-27T03:44:14.868Z,0
2016-09-27T03:45:14.840Z,0
2016-09-27T03:46:15.107Z,0
2016-09-27T03:47:15.076Z,0
2016-09-27T03:48:14.745Z,0
2016-09-27T03:49:15.004Z,0
2016-09-27T03:50:14.672Z,0
2016-09-27T03:51:14.937Z,0
2016-09-27T03:52:14.906Z,0
2016-09-27T03:53:14.878Z,0
2016-09-27T03:54:14.539Z,0
2016-09-27T03:55:14.808Z,0
2016-09-27T03:56:14.768Z,0
2016-09-27T03:57:14.736Z,0
2016-09-27T03:58:14.402Z,0
2016-09-27T03:59:14.379Z,0
2016-09-27T04:00:14.634Z,0
2016-09-27T04:01:14.004Z,0
2016-09-27T04:02:14.568Z,0
2016-09-27T04:03:14.550Z,0
2016-09-27T04:04:14.503Z,0
2016-09-27T04:05:14.168Z,0
2016-09-27T04:06:14.445Z,0
2016-09-27T04:07:14.407Z,0
2016-09-27T04:08:14.069Z,0
2016-09-27T04:09:14.031Z,0
2016-09-27T04:10:13.994Z,0
2016-09-27T04:11:13.965Z,0
2016-09-27T04:12:14.231Z,0
2016-09-27T04:13:13.596Z,0
2016-09-27T04:14:14.165Z,0
2016-09-27T04:15:14.130Z,0
2016-09-27T04:16:13.791Z,0
2016-09-27T04:17:14.062Z,0
2016-09-27T04:18:13.124Z,0
2016-09-27T04:19:13.709Z,0
2016-09-27T04:20:13.357Z,0
2016-09-27T04:21:13.627Z,0
2016-09-27T04:22:12.991Z,0
2016-09-27T04:23:13.559Z,0
2016-09-27T04:24:13.826Z,0
2016-09-27T04:25:13.797Z,0
2016-09-27T04:26:13.457Z,0
2016-09-27T04:27:13.720Z,0
2016-09-27T04:28:13.391Z,0
2016-09-27T04:29:13.354Z,0
2016-09-27T04:30:13.028Z,0
2016-09-27T04:31:13.299Z,0
2016-09-27T04:32:12.954Z,0
2016-09-27T04:33:13.216Z,0
2016-09-27T04:34:12.887Z,0
2016-09-27T04:35:13.154Z,0
2016-09-27T04:36:13.113Z,0
2016-09-27T04:37:13.090Z,0
2016-09-27T04:38:12.752Z,0
2016-09-27T04:39:13.022Z,0
2016-09-27T04:40:13.285Z,0
2016-09-27T04:41:12.949Z,0
2016-09-27T04:42:12.917Z,0
2016-09-27T04:43:13.180Z,0
2016-09-27T04:44:12.244Z,0
2016-09-27T04:45:13.122Z,0
2016-09-27T04:46:13.077Z,0
2016-09-27T04:47:13.047Z,0
2016-09-27T04:48:13.015Z,4
2016-09-27T04:49:12.988Z,0
2016-09-27T04:50:12.340Z,4
2016-09-27T04:51:12.611Z,0
2016-09-27T04:52:12.880Z,4
2016-09-27T04:53:12.838Z,4
2016-09-27T04:54:12.808Z,8
2016-09-27T04:55:12.787Z,8
2016-09-27T04:56:12.735Z,8
2016-09-27T04:57:12.710Z,12
2016-09-27T04:58:12.675Z,12
2016-09-27T04:59:12.640Z,16
2016-09-27T05:00:12.009Z,16
2016-09-27T05:01:12.573Z,20
2016-09-27T05:02:12.239Z,24
2016-09-27T05:03:12.203Z,28
2016-09-27T05:04:12.168Z,32
2016-09-27T05:05:12.133Z,40
2016-09-27T05:06:12.405Z,44
2016-09-27T05:07:12.362Z,52
2016-09-27T05:08:12.035Z,56
2016-09-27T05:09:11.694Z,68
2016-09-27T05:10:12.265Z,76
2016-09-27T05:11:12.237Z,84
2016-09-27T05:12:12.201Z,92
2016-09-27T05:13:12.169Z,100
2016-09-27T05:14:12.130Z,112
2016-09-27T05:15:11.790Z,128
2016-09-27T05:16:11.770Z,140
2016-09-27T05:17:12.028Z,156
2016-09-27T05:18:11.989Z,176
2016-09-27T05:19:11.661Z,196
2016-09-27T05:20:11.929Z,220
2016-09-27T05:21:11.893Z,244
2016-09-27T05:22:11.859Z,268
2016-09-27T05:23:11.817Z,300
2016-09-27T05:24:11.491Z,336
2016-09-27T05:25:11.449Z,376
2016-09-27T05:26:11.415Z,416
2016-09-27T05:27:11.386Z,456
2016-09-27T05:28:11.647Z,504
2016-09-27T05:29:11.619Z,564
2016-09-27T05:30:11.587Z,636
2016-09-27T05:31:11.543Z,704
2016-09-27T05:32:11.521Z,760
2016-09-27T05:33:11.479Z,804
2016-09-27T05:34:11.445Z,832
2016-09-27T05:35:11.109Z,860
2016-09-27T05:36:11.377Z,880
2016-09-27T05:37:11.047Z,892
2016-09-27T05:38:11.017Z,920
2016-09-27T05:39:11.275Z,980
2016-09-27T05:40:10.933Z,1064
2016-09-27T05:41:11.208Z,1152
2016-09-27T05:42:10.874Z,1260
2016-09-27T05:43:10.833Z,1372
2016-09-27T05:44:11.106Z,1472
2016-09-27T05:45:11.072Z,1560
2016-09-27T05:46:10.726Z,1632
2016-09-27T05:47:10.698Z,1696
2016-09-27T05:48:10.662Z,1756
2016-09-27T05:49:10.939Z,1808
2016-09-27T05:50:10.899Z,1884
2016-09-27T05:51:10.862Z,1996
2016-09-27T05:52:10.827Z,2132
2016-09-27T05:53:10.802Z,2312
2016-09-27T05:54:10.455Z,2544
2016-09-27T05:55:10.723Z,2808
2016-09-27T05:56:10.691Z,3108
2016-09-27T05:57:10.053Z,3396
2016-09-27T05:58:10.020Z,3632
2016-09-27T05:59:10.596Z,3828
2016-09-27T06:00:10.267Z,3988
2016-09-27T06:01:10.225Z,4176
2016-09-27T06:02:10.189Z,4372
2016-09-27T06:03:10.161Z,4568
2016-09-27T06:04:10.115Z,4764
2016-09-27T06:05:09.783Z,4972
2016-09-27T06:06:10.054Z,5144
2016-09-27T06:07:10.014Z,5264
2016-09-27T06:08:09.990Z,5356
2016-09-27T06:09:09.949Z,5452
2016-09-27T06:10:09.920Z,5688
2016-09-27T06:11:09.888Z,6016
2016-09-27T06:12:10.152Z,7856
2016-09-27T06:13:10.118Z,8160
2016-09-27T06:14:10.089Z,9500
2016-09-27T06:15:09.447Z,9972
2016-09-27T06:16:09.415Z,8816
2016-09-27T06:17:09.684Z,8892
2016-09-27T06:18:09.046Z,9728
2016-09-27T06:19:09.319Z,8364
2016-09-27T06:20:09.281Z,8060
2016-09-27T06:21:09.553Z,7812
2016-09-27T06:22:09.824Z,7488
2016-09-27T06:23:09.790Z,7304
2016-09-27T06:24:09.757Z,7216
2016-09-27T06:25:09.724Z,6936
2016-09-27T06:26:09.695Z,6516
2016-09-27T06:27:09.359Z,5996
2016-09-27T06:28:09.328Z,5484
2016-09-27T06:29:09.594Z,5076
2016-09-27T06:30:09.566Z,4852
2016-09-27T06:31:09.231Z,4800
2016-09-27T06:32:09.501Z,4920
2016-09-27T06:33:09.177Z,5168
2016-09-27T06:34:09.441Z,5512
2016-09-27T06:35:09.098Z,5944
2016-09-27T06:36:09.367Z,6464
2016-09-27T06:37:09.343Z,6976
2016-09-27T06:38:08.705Z,7448
2016-09-27T06:39:08.672Z,8100
2016-09-27T06:40:08.950Z,8824
2016-09-27T06:41:08.608Z,9384
2016-09-27T06:42:08.577Z,10084
2016-09-27T06:43:08.556Z,12164
2016-09-27T06:44:08.529Z,16128
2016-09-27T06:45:09.089Z,15520
2016-09-27T06:46:08.754Z,14204
2016-09-27T06:47:08.720Z,14532
2016-09-27T06:48:09.005Z,13296
2016-09-27T06:49:08.659Z,13280
2016-09-27T06:50:08.931Z,14072
2016-09-27T06:51:08.898Z,14888
2016-09-27T06:52:08.559Z,17472
2016-09-27T06:53:08.839Z,21376
2016-09-27T06:54:08.803Z,25760
2016-09-27T06:55:08.773Z,25856
2016-09-27T06:56:08.743Z,21728
2016-09-27T06:57:08.707Z,29312
2016-09-27T06:58:08.681Z,32608
2016-09-27T06:59:08.650Z,32128
2016-09-27T07:00:08.319Z,36096
2016-09-27T07:01:08.297Z,37856
2016-09-27T07:02:08.566Z,27712
2016-09-27T07:03:08.538Z,37312
2016-09-27T07:04:08.203Z,38464
2016-09-27T07:05:07.869Z,39936
2016-09-27T07:06:08.443Z,25664
2016-09-27T07:07:08.113Z,16992
2016-09-27T07:08:08.393Z,20096
2016-09-27T07:09:08.358Z,20576
2016-09-27T07:10:08.026Z,15752
2016-09-27T07:11:08.303Z,15256
2016-09-27T07:12:07.976Z,14744
2016-09-27T07:13:08.248Z,14800
2016-09-27T07:14:08.217Z,14472
2016-09-27T07:15:07.897Z,14876
2016-09-27T07:16:08.163Z,11548
2016-09-27T07:17:07.530Z,10684
2016-09-27T07:18:07.811Z,10152
2016-09-27T07:19:08.076Z,9720
2016-09-27T07:20:08.058Z,9404
2016-09-27T07:21:07.422Z,9160
2016-09-27T07:22:07.997Z,8948
2016-09-27T07:23:07.672Z,8768
2016-09-27T07:24:07.950Z,8600
2016-09-27T07:25:07.609Z,8460
2016-09-27T07:26:07.591Z,8376
2016-09-27T07:27:07.563Z,8320
2016-09-27T07:28:07.529Z,8288
2016-09-27T07:29:07.799Z,8292
2016-09-27T07:30:07.471Z,8336
2016-09-27T07:31:07.748Z,8412
2016-09-27T07:32:07.414Z,8516
2016-09-27T07:33:07.382Z,8620
2016-09-27T07:34:07.659Z,8700
2016-09-27T07:35:07.036Z,8756
2016-09-27T07:36:07.595Z,8836
2016-09-27T07:37:07.571Z,8936
2016-09-27T07:38:07.538Z,9056
2016-09-27T07:39:07.208Z,9208
2016-09-27T07:40:07.182Z,9368
2016-09-27T07:41:07.455Z,9456
2016-09-27T07:42:07.119Z,9476
2016-09-27T07:43:07.087Z,9524
2016-09-27T07:44:06.758Z,9588
2016-09-27T07:45:07.342Z,9632
2016-09-27T07:46:07.304Z,9636
2016-09-27T07:47:06.678Z,9600
2016-09-27T07:48:07.243Z,9564
2016-09-27T07:49:07.216Z,9540
2016-09-27T07:50:06.881Z,9536
2016-09-27T07:51:06.854Z,9540
2016-09-27T07:52:07.122Z,9552
2016-09-27T07:53:07.095Z,9596
2016-09-27T07:54:07.060Z,9676
2016-09-27T07:55:06.140Z,9776
2016-09-27T07:56:06.701Z,9876
2016-09-27T07:57:06.370Z,9928
2016-09-27T07:58:06.640Z,10004
2016-09-27T07:59:06.613Z,10196
2016-09-27T08:00:05.976Z,10408
2016-09-27T08:01:06.557Z,10556
2016-09-27T08:02:06.217Z,10696
2016-09-27T08:03:06.795Z,11020
2016-09-27T08:04:06.461Z,11276
2016-09-27T08:05:06.732Z,11640
2016-09-27T08:06:06.713Z,12160
2016-09-27T08:07:06.372Z,12440
2016-09-27T08:08:06.035Z,12756
2016-09-27T08:09:06.310Z,13064
2016-09-27T08:10:06.279Z,13528
2016-09-27T08:11:06.546Z,13952
2016-09-27T08:12:06.218Z,14140
2016-09-27T08:13:06.192Z,14096
2016-09-27T08:14:06.164Z,14112
2016-09-27T08:15:06.436Z,14116
2016-09-27T08:16:06.100Z,14176
2016-09-27T08:17:06.076Z,14152
2016-09-27T08:18:06.342Z,14104
2016-09-27T08:19:06.331Z,14224
2016-09-27T08:20:06.006Z,14604
2016-09-27T08:21:05.959Z,15032
2016-09-27T08:22:06.219Z,15716
2016-09-27T08:23:05.892Z,16864
2016-09-27T08:24:05.555Z,18592
2016-09-27T08:25:06.142Z,19136
2016-09-27T08:26:06.098Z,21664
2016-09-27T08:27:05.780Z,22592
2016-09-27T08:28:05.744Z,23872
2016-09-27T08:29:06.010Z,27712
2016-09-27T08:30:05.681Z,32448
2016-09-27T08:31:05.652Z,31552
2016-09-27T08:32:05.923Z,34400
2016-09-27T08:33:05.895Z,42496
2016-09-27T08:34:05.871Z,52064
2016-09-27T08:35:05.836Z,60928
2016-09-27T08:36:05.817Z,61568
2016-09-27T08:37:05.196Z,66112
2016-09-27T08:38:05.447Z,71392
2016-09-27T08:39:05.724Z,75872
2016-09-27T08:40:05.392Z,76864
2016-09-27T08:41:05.361Z,78592
2016-09-27T08:42:05.340Z,84224
2016-09-27T08:43:05.614Z,84832
2016-09-27T08:44:05.588Z,87680
2016-09-27T08:45:05.570Z,89472
2016-09-27T08:46:05.241Z,88576
2016-09-27T08:47:05.522Z,83552
2016-09-27T08:48:04.890Z,87040
2016-09-27T08:49:05.463Z,95328
2016-09-27T08:50:04.836Z,93760
2016-09-27T08:51:05.421Z,89248
2016-09-27T08:52:04.799Z,90976
2016-09-27T08:53:05.381Z,88320
2016-09-27T08:54:05.360Z,65088
2016-09-27T08:55:04.426Z,50400
2016-09-27T08:56:05.316Z,40320
2016-09-27T08:57:04.985Z,60000
2016-09-27T08:58:05.277Z,61184
2016-09-27T08:59:05.246Z,79104
2016-09-27T09:00:04.917Z,89856
2016-09-27T09:01:05.203Z,87712
2016-09-27T09:02:05.186Z,84000
2016-09-27T09:03:04.870Z,72512
2016-09-27T09:04:04.841Z,57728
2016-09-27T09:05:05.126Z,45824
2016-09-27T09:06:05.104Z,45280
2016-09-27T09:07:04.775Z,47840
2016-09-27T09:08:05.060Z,87136
2016-09-27T09:09:04.744Z,66720
2016-09-27T09:10:05.016Z,64704
2016-09-27T09:11:04.702Z,43232
2016-09-27T09:12:04.693Z,26752
2016-09-27T09:13:04.352Z,22656
2016-09-27T09:14:04.347Z,20992
2016-09-27T09:15:04.314Z,20000
2016-09-27T09:16:04.598Z,20576
2016-09-27T09:17:04.571Z,22304
2016-09-27T09:18:04.864Z,25952
2016-09-27T09:19:04.544Z,25600
2016-09-27T09:20:04.205Z,29056
2016-09-27T09:21:04.793Z,31968
2016-09-27T09:22:04.773Z,88320
2016-09-27T09:23:04.747Z,88096
2016-09-27T09:24:04.423Z,81600
2016-09-27T09:25:04.705Z,46304
2016-09-27T09:26:04.688Z,88160
2016-09-27T09:27:04.656Z,89120
2016-09-27T09:28:04.332Z,86432
2016-09-27T09:29:04.314Z,80640
2016-09-27T09:30:03.987Z,79520
2016-09-27T09:31:04.269Z,89088
2016-09-27T09:32:03.941Z,90304
2016-09-27T09:33:04.528Z,93760
2016-09-27T09:34:04.204Z,94144
2016-09-27T09:35:04.181Z,93536
2016-09-27T09:36:04.468Z,94240
2016-09-27T09:37:04.450Z,91648
2016-09-27T09:38:04.124Z,78336
2016-09-27T09:39:04.101Z,93024
2016-09-27T09:40:03.781Z,55232
2016-09-27T09:41:04.079Z,40576
2016-09-27T09:42:04.360Z,25248
2016-09-27T09:43:04.335Z,23328
2016-09-27T09:44:04.007Z,23072
2016-09-27T09:45:03.996Z,23424
2016-09-27T09:46:03.970Z,23296
2016-09-27T09:47:04.250Z,23264
2016-09-27T09:48:03.624Z,26880
2016-09-27T09:49:03.905Z,23584
2016-09-27T09:50:03.887Z,27520
2016-09-27T09:51:03.865Z,43808
2016-09-27T09:52:03.851Z,18656
2016-09-27T09:53:03.526Z,19456
2016-09-27T09:54:04.108Z,56320
2016-09-27T09:55:03.495Z,14788
2016-09-27T09:56:03.158Z,12220
2016-09-27T09:57:03.735Z,10180
2016-09-27T09:58:03.719Z,8848
2016-09-27T09:59:03.695Z,8152
2016-09-27T10:00:03.988Z,7724
2016-09-27T10:01:03.653Z,7408
2016-09-27T10:02:03.923Z,7108
2016-09-27T10:03:03.912Z,6700
2016-09-27T10:04:03.585Z,6356
2016-09-27T10:05:03.873Z,6140
2016-09-27T10:06:03.540Z,6032
2016-09-27T10:07:03.815Z,5872
2016-09-27T10:08:03.787Z,5660
2016-09-27T10:09:03.464Z,5440
2016-09-27T10:10:03.143Z,5260
2016-09-27T10:11:03.125Z,5116
2016-09-27T10:12:03.409Z,5092
2016-09-27T10:13:03.365Z,5192
2016-09-27T10:14:03.353Z,5392
2016-09-27T10:15:03.612Z,5708
2016-09-27T10:16:03.291Z,6068
2016-09-27T10:17:03.569Z,6500
2016-09-27T10:18:03.542Z,6976
2016-09-27T10:19:03.218Z,7396
2016-09-27T10:20:03.183Z,7768
2016-09-27T10:21:02.865Z,8056
2016-09-27T10:22:03.438Z,8128
2016-09-27T10:23:03.107Z,7916
2016-09-27T10:24:03.076Z,7612
2016-09-27T10:25:03.358Z,7596
2016-09-27T10:26:03.335Z,7900
2016-09-27T10:27:02.994Z,8520
2016-09-27T10:28:02.963Z,9396
2016-09-27T10:29:02.943Z,10396
2016-09-27T10:30:02.911Z,11304
2016-09-27T10:31:02.584Z,12016
2016-09-27T10:32:02.860Z,12452
2016-09-27T10:33:02.529Z,12580
2016-09-27T10:34:02.502Z,12520
2016-09-27T10:35:02.788Z,12284
2016-09-27T10:36:02.762Z,11608
2016-09-27T10:37:03.022Z,10960
2016-09-27T10:38:02.996Z,10692
2016-09-27T10:39:02.366Z,10920
2016-09-27T10:40:02.942Z,11404
2016-09-27T10:41:02.915Z,12012
2016-09-27T10:42:02.885Z,12444
2016-09-27T10:43:02.861Z,12532
2016-09-27T10:44:02.530Z,12600
2016-09-27T10:45:02.808Z,12532
2016-09-27T10:46:02.478Z,12600
2016-09-27T10:47:02.145Z,12364
2016-09-27T10:48:02.718Z,12112
2016-09-27T10:49:02.392Z,11996
2016-09-27T10:50:02.358Z,12036
2016-09-27T10:51:02.334Z,12248
2016-09-27T10:52:02.619Z,12820
2016-09-27T10:53:02.582Z,13568
2016-09-27T10:54:02.250Z,14288
2016-09-27T10:55:02.227Z,17376
2016-09-27T10:56:02.502Z,14140
2016-09-27T10:57:02.470Z,13300
2016-09-27T10:58:02.137Z,13256
2016-09-27T10:59:02.111Z,13588
2016-09-27T11:00:02.091Z,14156
2016-09-27T11:01:02.360Z,15508
2016-09-27T11:02:02.325Z,15820
2016-09-27T11:03:02.303Z,20864
2016-09-27T11:04:02.274Z,15888
2016-09-27T11:05:02.247Z,14832
2016-09-27T11:06:01.611Z,14408
2016-09-27T11:07:01.583Z,14068
2016-09-27T11:08:01.557Z,13940
2016-09-27T11:09:01.832Z,13996
2016-09-27T11:10:02.097Z,14052
2016-09-27T11:11:01.771Z,14124
2016-09-27T11:12:02.047Z,14268
2016-09-27T11:13:01.717Z,14536
2016-09-27T11:14:01.085Z,14992
2016-09-27T11:15:01.963Z,15504
2016-09-27T11:16:01.640Z,15976
2016-09-27T11:17:01.904Z,16460
2016-09-27T11:18:01.574Z,17088
2016-09-27T11:19:01.549Z,17440
2016-09-27T11:20:01.826Z,17728
2016-09-27T11:21:01.502Z,18080
2016-09-27T11:22:01.496Z,18592
2016-09-27T11:23:01.133Z,19264
2016-09-27T11:24:01.718Z,19904
2016-09-27T11:25:01.080Z,20672
2016-09-27T11:26:01.352Z,22848
2016-09-27T11:27:01.626Z,23648
2016-09-27T11:28:01.596Z,23456
2016-09-27T11:29:01.565Z,22848
2016-09-27T11:30:01.252Z,21952
2016-09-27T11:31:01.515Z,23296
2016-09-27T11:32:01.188Z,22016
2016-09-27T11:33:01.457Z,22304
2016-09-27T11:34:01.426Z,22176
2016-09-27T11:35:01.103Z,21952
2016-09-27T11:36:01.374Z,21632
2016-09-27T11:37:01.046Z,21152
2016-09-27T11:38:01.017Z,20640
2016-09-27T11:39:00.999Z,20224
2016-09-27T11:40:01.257Z,19776
2016-09-27T11:41:00.629Z,19168
2016-09-27T11:42:01.211Z,18560
2016-09-27T11:43:01.179Z,18112
2016-09-27T11:44:01.161Z,17888
2016-09-27T11:45:00.526Z,17760
2016-09-27T11:46:01.105Z,17096
2016-09-27T11:47:00.472Z,16120
2016-09-27T11:48:00.438Z,14916
2016-09-27T11:49:00.717Z,13864
2016-09-27T11:50:00.689Z,13088
2016-09-27T11:51:00.355Z,12272
2016-09-27T11:52:00.986Z,11492
2016-09-27T11:53:00.606Z,10996
2016-09-27T11:54:00.577Z,10668
2016-09-27T11:55:00.560Z,10564
2016-09-27T11:56:00.828Z,10824
2016-09-27T11:57:00.499Z,11428
2016-09-27T11:58:00.465Z,11620
2016-09-27T11:59:00.440Z,11352
2016-09-27T12:00:00.419Z,11020
2016-09-27T12:01:00.382Z,10700
2016-09-27T12:02:00.353Z,10352
2016-09-27T12:03:00.329Z,10024
2016-09-27T12:04:00.302Z,9860
2016-09-27T12:04:59.977Z,9792
2016-09-27T12:06:00.549Z,9768
2016-09-27T12:07:00.218Z,9752
2016-09-27T12:08:00.188Z,9744
2016-09-27T12:09:00.159Z,9660
2016-09-27T12:09:59.825Z,9516
2016-09-27T12:10:59.501Z,9452
2016-09-27T12:12:00.374Z,9312
2016-09-27T12:13:00.043Z,9228
2016-09-27T12:14:00.335Z,9252
2016-09-27T12:15:00.294Z,9324
2016-09-27T12:15:59.964Z,9444
2016-09-27T12:16:59.935Z,9652
2016-09-27T12:17:59.599Z,9892
2016-09-27T12:18:59.874Z,10128
2016-09-27T12:19:59.855Z,10288
2016-09-27T12:20:59.522Z,10580
2016-09-27T12:21:59.793Z,10860
2016-09-27T12:23:00.065Z,11228
2016-09-27T12:23:59.428Z,11556
2016-09-27T12:25:00.012Z,12012
2016-09-27T12:25:59.671Z,12328
2016-09-27T12:26:59.947Z,12444
2016-09-27T12:27:59.919Z,13092
2016-09-27T12:28:59.890Z,13632
2016-09-27T12:29:59.862Z,14104
2016-09-27T12:30:58.926Z,14456
2016-09-27T12:31:59.504Z,14432
2016-09-27T12:32:59.481Z,13940
2016-09-27T12:33:59.141Z,13556
2016-09-27T12:34:59.424Z,13040
2016-09-27T12:35:59.691Z,12620
2016-09-27T12:36:59.069Z,12520
2016-09-27T12:37:59.642Z,12040
2016-09-27T12:38:59.617Z,11632
2016-09-27T12:39:59.281Z,11552
2016-09-27T12:40:59.249Z,11304
2016-09-27T12:41:59.223Z,11088
2016-09-27T12:42:59.192Z,11012
2016-09-27T12:43:58.861Z,10920
2016-09-27T12:44:59.436Z,10840
2016-09-27T12:45:59.113Z,10692
2016-09-27T12:46:59.380Z,10432
2016-09-27T12:47:59.349Z,10292
2016-09-27T12:48:59.028Z,10232
2016-09-27T12:49:58.991Z,10272
2016-09-27T12:50:58.965Z,9732
2016-09-27T12:51:59.237Z,9116
2016-09-27T12:52:58.913Z,8588
2016-09-27T12:53:58.882Z,8168
2016-09-27T12:54:59.150Z,7904
2016-09-27T12:55:59.123Z,7904
2016-09-27T12:56:59.104Z,7948
2016-09-27T12:57:59.064Z,8012
2016-09-27T12:58:58.743Z,8016
2016-09-27T12:59:59.008Z,7872
2016-09-27T13:00:58.980Z,7732
2016-09-27T13:01:58.949Z,7576
2016-09-27T13:02:58.619Z,7288
2016-09-27T13:03:58.894Z,6996
2016-09-27T13:04:58.861Z,6824
2016-09-27T13:05:58.536Z,6824
2016-09-27T13:06:58.504Z,6852
2016-09-27T13:07:58.780Z,6988
2016-09-27T13:08:58.754Z,7176
2016-09-27T13:09:58.111Z,7384
2016-09-27T13:10:58.695Z,7504
2016-09-27T13:11:58.056Z,7596
2016-09-27T13:12:58.328Z,7608
2016-09-27T13:13:58.306Z,7576
2016-09-27T13:14:58.282Z,7520
2016-09-27T13:15:58.246Z,7476
2016-09-27T13:16:58.221Z,7356
2016-09-27T13:17:57.890Z,7280
2016-09-27T13:18:58.462Z,7256
2016-09-27T13:19:58.141Z,7232
2016-09-27T13:20:58.409Z,7172
2016-09-27T13:21:57.770Z,7240
2016-09-27T13:22:58.046Z,7404
2016-09-27T13:23:57.716Z,7500
2016-09-27T13:24:57.999Z,7564
2016-09-27T13:25:58.263Z,7664
2016-09-27T13:26:57.928Z,7708
2016-09-27T13:27:57.899Z,7672
2016-09-27T13:28:58.175Z,7676
2016-09-27T13:29:57.850Z,7664
2016-09-27T13:30:57.513Z,7752
2016-09-27T13:31:58.083Z,7852
2016-09-27T13:32:58.053Z,7864
2016-09-27T13:33:57.727Z,7732
2016-09-27T13:34:57.704Z,7488
2016-09-27T13:35:57.672Z,7176
2016-09-27T13:36:57.640Z,6852
2016-09-27T13:37:57.913Z,6548
2016-09-27T13:38:57.891Z,6352
2016-09-27T13:39:57.560Z,6260